Time;durP1;ratioP1;P1;durP2;ratioP2;P2;SDS_P1;SDS_P2;PMS_P1;PMS_P2;Temp;Humidity;BMP_temperature;BMP_pressure;BME280_temperature;BME280_humidity;BME280_pressure;Samples;Min_cycle;Max_cycle;Signal;HPM_P1;HPM_P2
2023/01/03 00:00:06;;;;;;;3.60;2.07;;;8.00;99.90;;;;;;4183451;28;20472;-81
2023/01/03 00:02:09;;;;;;;3.37;1.80;;;8.00;99.90;;;;;;4185753;28;20460;-81
2023/01/03 00:04:11;;;;;;;5.50;2.13;;;8.00;99.90;;;;;;4169147;28;20538;-81
2023/01/03 00:06:19;;;;;;;4.53;1.93;;;8.00;99.90;;;;;;4173756;28;20465;-81
2023/01/03 00:08:24;;;;;;;3.07;2.03;;;8.10;99.90;;;;;;4168449;28;20208;-81
2023/01/03 00:10:26;;;;;;;3.97;1.97;;;8.00;99.90;;;;;;4188416;28;20456;-81
2023/01/03 00:12:28;;;;;;;4.03;2.20;;;8.00;99.90;;;;;;4181446;28;20449;-81
2023/01/03 00:14:33;;;;;;;2.87;1.93;;;8.00;99.90;;;;;;4183035;28;20488;-80
2023/01/03 00:16:34;;;;;;;5.97;1.77;;;8.00;99.90;;;;;;4177268;28;20464;-80
2023/01/03 00:18:39;;;;;;;5.37;2.00;;;8.00;99.90;;;;;;4160601;28;20458;-81
2023/01/03 00:20:43;;;;;;;3.03;2.03;;;8.00;99.90;;;;;;4163000;28;20520;-80
2023/01/03 00:22:47;;;;;;;3.17;2.00;;;8.00;99.90;;;;;;4173390;28;20484;-81
2023/01/03 00:24:51;;;;;;;2.67;1.80;;;7.90;99.90;;;;;;4179544;28;20450;-81
2023/01/03 00:26:53;;;;;;;4.07;2.50;;;7.90;99.90;;;;;;4175268;28;20520;-81
2023/01/03 00:28:55;;;;;;;4.30;2.23;;;7.90;99.90;;;;;;4162723;28;20482;-81
2023/01/03 00:30:57;;;;;;;3.97;2.10;;;7.90;99.90;;;;;;4181699;28;20461;-81
2023/01/03 00:32:59;;;;;;;4.23;1.90;;;7.90;99.90;;;;;;4163381;28;20831;-80
2023/01/03 00:35:02;;;;;;;2.60;1.87;;;7.90;99.90;;;;;;4182392;28;20555;-80
2023/01/03 00:37:04;;;;;;;3.93;2.33;;;7.80;99.90;;;;;;4180261;28;20456;-81
2023/01/03 00:39:08;;;;;;;6.93;3.13;;;7.80;99.90;;;;;;4180462;28;20472;-81
2023/01/03 00:41:11;;;;;;;5.03;2.73;;;7.80;99.90;;;;;;4174280;28;20935;-80
2023/01/03 00:43:28;;;;;;;8.83;3.63;;;7.70;99.90;;;;;;4175019;28;20445;-81
2023/01/03 00:45:30;;;;;;;3.97;2.30;;;7.70;99.90;;;;;;4162913;28;20284;-81
2023/01/03 00:47:32;;;;;;;4.60;2.57;;;7.70;99.90;;;;;;4156787;28;20518;-81
2023/01/03 00:49:34;;;;;;;5.37;3.03;;;7.60;99.90;;;;;;4173140;28;20978;-81
2023/01/03 00:51:38;;;;;;;5.50;2.50;;;7.60;99.90;;;;;;4160990;28;20459;-81
2023/01/03 00:53:41;;;;;;;6.47;3.70;;;7.60;99.90;;;;;;4160300;28;20497;-81
2023/01/03 00:55:45;;;;;;;6.30;3.80;;;7.50;99.90;;;;;;4164007;28;20546;-81
2023/01/03 00:57:47;;;;;;;4.37;2.70;;;7.50;99.90;;;;;;4180887;28;20453;-81
2023/01/03 00:59:49;;;;;;;4.67;2.57;;;7.50;99.90;;;;;;4165962;28;20503;-81
2023/01/03 01:01:53;;;;;;;5.63;2.77;;;7.40;99.90;;;;;;4167793;28;20470;-81
2023/01/03 01:03:58;;;;;;;6.60;2.90;;;7.40;99.90;;;;;;4179252;28;20449;-81
2023/01/03 01:06:00;;;;;;;5.00;3.07;;;7.40;99.90;;;;;;4164475;28;20442;-81
2023/01/03 01:08:02;;;;;;;9.63;3.60;;;7.40;99.90;;;;;;4166380;28;20453;-81
2023/01/03 01:10:05;;;;;;;6.47;3.33;;;7.40;99.90;;;;;;4159547;28;20609;-81
2023/01/03 01:12:08;;;;;;;7.27;3.27;;;7.30;99.90;;;;;;4168263;28;20456;-81
2023/01/03 01:14:19;;;;;;;5.87;3.17;;;7.30;99.90;;;;;;4165973;28;20883;-81
2023/01/03 01:16:25;;;;;;;5.27;2.97;;;7.30;99.90;;;;;;4159881;28;20541;-81
2023/01/03 01:18:27;;;;;;;4.30;2.67;;;7.20;99.90;;;;;;4160292;28;20465;-81
2023/01/03 01:20:29;;;;;;;7.07;2.90;;;7.20;99.90;;;;;;4183027;28;20860;-81
2023/01/03 01:22:31;;;;;;;8.53;2.83;;;7.20;99.90;;;;;;4180132;28;20562;-81
2023/01/03 01:24:33;;;;;;;8.30;3.30;;;7.20;99.90;;;;;;4163865;28;20461;-81
2023/01/03 01:26:35;;;;;;;7.97;3.03;;;7.20;99.90;;;;;;4181823;28;20473;-81
2023/01/03 01:28:39;;;;;;;7.57;3.10;;;7.20;99.90;;;;;;4160099;28;21002;-81
2023/01/03 01:30:41;;;;;;;4.27;2.43;;;7.20;99.90;;;;;;4163449;28;20446;-81
2023/01/03 01:32:43;;;;;;;4.90;2.83;;;7.20;99.90;;;;;;4174711;28;20461;-81
2023/01/03 01:34:45;;;;;;;7.10;3.10;;;7.20;99.90;;;;;;4179665;28;20515;-81
2023/01/03 01:36:47;;;;;;;4.03;2.67;;;7.20;99.90;;;;;;4178940;28;20503;-81
2023/01/03 01:38:58;;;;;;;5.17;3.20;;;7.10;99.90;;;;;;4177826;28;20884;-81
2023/01/03 01:41:00;;;;;;;4.83;3.07;;;7.20;99.90;;;;;;4182687;28;20465;-81
2023/01/03 01:45:34;;;;;;;4.57;2.77;;;7.10;99.90;;;;;;4184715;28;20507;-81
2023/01/03 01:47:40;;;;;;;6.00;2.73;;;7.10;99.90;;;;;;4181784;28;20464;-81
2023/01/03 01:49:43;;;;;;;6.57;2.93;;;7.20;99.90;;;;;;4179275;28;20533;-81
2023/01/03 01:51:46;;;;;;;6.80;3.30;;;7.10;99.90;;;;;;4181503;28;20464;-81
2023/01/03 01:53:48;;;;;;;5.60;2.93;;;7.20;99.90;;;;;;4180303;28;20866;-81
2023/01/03 01:55:58;;;;;;;9.10;3.63;;;7.10;99.90;;;;;;4182773;28;20999;-81
2023/01/03 01:58:01;;;;;;;7.93;3.43;;;7.20;99.90;;;;;;4184511;28;20733;-81
2023/01/03 02:00:05;;;;;;;9.00;3.13;;;7.20;99.90;;;;;;4177820;28;20533;-82
2023/01/03 02:02:09;;;;;;;6.10;3.00;;;7.20;99.90;;;;;;4177114;28;20460;-82
2023/01/03 02:04:16;;;;;;;11.37;3.00;;;7.20;99.90;;;;;;4172980;28;20871;-82
2023/01/03 02:06:19;;;;;;;7.53;3.57;;;7.10;99.90;;;;;;4175854;28;20962;-82
2023/01/03 02:08:22;;;;;;;8.70;3.47;;;7.20;99.90;;;;;;4178941;28;20498;-82
2023/01/03 02:10:34;;;;;;;6.50;3.40;;;7.10;99.90;;;;;;4176218;28;20488;-81
2023/01/03 02:15:15;;;;;;;7.47;3.67;;;7.10;99.90;;;;;;4179854;28;20493;-81
2023/01/03 02:17:26;;;;;;;8.87;3.93;;;7.20;99.90;;;;;;4182524;28;20482;-81
2023/01/03 02:20:04;;;;;;;7.43;3.50;;;7.10;99.90;;;;;;4180979;28;20477;-81
2023/01/03 02:22:24;;;;;;;9.97;4.00;;;7.10;99.90;;;;;;4138134;28;20480;-81
2023/01/03 02:25:06;;;;;;;6.10;3.50;;;7.10;99.90;;;;;;4178662;28;20491;-81
2023/01/03 02:27:34;;;;;;;7.63;3.73;;;7.10;99.90;;;;;;4183807;28;20460;-81
2023/01/03 02:30:19;;;;;;;6.23;3.10;;;7.10;99.90;;;;;;4181578;28;20511;-81
2023/01/03 02:32:33;;;;;;;6.60;3.57;;;7.00;99.90;;;;;;4162558;28;20519;-81
2023/01/03 02:34:46;;;;;;;8.47;3.40;;;7.00;99.90;;;;;;4179496;28;20476;-84
2023/01/03 02:36:59;;;;;;;9.43;3.50;;;7.00;99.90;;;;;;4180257;28;20451;-81
2023/01/03 02:39:06;;;;;;;4.93;2.87;;;7.00;99.90;;;;;;4178420;28;20566;-81
2023/01/03 02:41:16;;;;;;;7.67;3.93;;;7.00;99.90;;;;;;4180568;28;20485;-81
2023/01/03 02:43:25;;;;;;;6.30;3.30;;;7.00;99.90;;;;;;4187823;28;20562;-81
2023/01/03 02:45:42;;;;;;;9.53;4.00;;;6.90;99.90;;;;;;4170974;28;20500;-82
2023/01/03 02:47:52;;;;;;;6.23;3.40;;;6.90;99.90;;;;;;4178875;28;20867;-81
2023/01/03 02:49:58;;;;;;;6.60;3.53;;;6.90;99.90;;;;;;4173069;28;20475;-84
2023/01/03 02:52:03;;;;;;;7.00;3.27;;;7.30;99.90;;;;;;4178765;28;20595;-83
2023/01/03 02:54:07;;;;;;;6.93;3.40;;;6.80;99.90;;;;;;4178526;28;20445;-81
2023/01/03 02:56:13;;;;;;;6.00;3.10;;;6.80;99.90;;;;;;4175358;28;20487;-81
2023/01/03 02:58:20;;;;;;;6.20;3.13;;;6.80;99.90;;;;;;4175880;28;20493;-81
2023/01/03 03:00:25;;;;;;;5.83;3.13;;;6.70;99.90;;;;;;4173937;28;20607;-81
2023/01/03 03:02:32;;;;;;;6.07;3.33;;;6.70;99.90;;;;;;4178030;28;20468;-82
2023/01/03 03:04:38;;;;;;;7.97;3.40;;;6.70;99.90;;;;;;4176096;28;20568;-81
2023/01/03 03:06:47;;;;;;;8.93;3.30;;;6.70;99.90;;;;;;4156446;28;20523;-81
2023/01/03 03:08:49;;;;;;;8.60;3.50;;;6.70;99.90;;;;;;4158313;28;20484;-81
2023/01/03 03:13:27;;;;;;;8.30;4.00;;;6.70;99.90;;;;;;4161920;28;20468;-81
2023/01/03 03:15:33;;;;;;;11.93;4.20;;;6.70;99.90;;;;;;4160225;28;20572;-81
2023/01/03 03:17:36;;;;;;;8.67;4.47;;;6.70;99.90;;;;;;4174053;28;20461;-82
2023/01/03 03:26:44;;;;;;;10.47;4.87;;;6.60;99.90;;;;;;4173692;28;20449;-82
2023/01/03 03:28:49;;;;;;;12.57;4.83;;;6.60;99.90;;;;;;4172994;28;20464;-83
2023/01/03 03:30:56;;;;;;;13.63;6.17;;;6.60;99.90;;;;;;4175067;28;20453;-82
2023/01/03 03:33:04;;;;;;;13.90;6.03;;;6.60;99.90;;;;;;4157301;28;20560;-82
2023/01/03 03:35:11;;;;;;;13.27;6.23;;;6.60;99.90;;;;;;4175594;28;20950;-83
2023/01/03 03:37:17;;;;;;;12.07;5.50;;;6.70;99.90;;;;;;4155528;28;20458;-82
2023/01/03 03:46:44;;;;;;;9.10;4.97;;;6.70;99.90;;;;;;4157544;28;20456;-82
2023/01/03 03:51:17;;;;;;;7.90;5.03;;;6.70;99.90;;;;;;4141556;28;20457;-82
2023/01/03 03:53:23;;;;;;;10.70;5.17;;;6.70;99.90;;;;;;4179313;28;20488;-83
2023/01/03 03:55:33;;;;;;;12.20;4.93;;;6.70;99.90;;;;;;4172777;28;20487;-82
2023/01/03 03:57:40;;;;;;;13.07;4.93;;;6.70;99.90;;;;;;4179289;28;20456;-82
2023/01/03 03:59:48;;;;;;;9.87;5.00;;;6.70;99.90;;;;;;4155039;28;20489;-82
2023/01/03 04:01:51;;;;;;;10.77;5.60;;;6.70;99.90;;;;;;4175767;28;20464;-81
2023/01/03 04:03:57;;;;;;;9.90;5.40;;;6.70;99.90;;;;;;4155818;28;20462;-83
2023/01/03 04:06:02;;;;;;;11.43;5.70;;;6.60;99.90;;;;;;4153825;28;20508;-82
2023/01/03 04:08:06;;;;;;;12.30;5.77;;;6.70;99.90;;;;;;4156908;28;20569;-83
2023/01/03 04:10:09;;;;;;;16.07;5.67;;;6.60;99.90;;;;;;4157186;28;20925;-82
2023/01/03 04:12:11;;;;;;;14.40;6.70;;;6.60;99.90;;;;;;4175613;28;20461;-83
2023/01/03 04:14:14;;;;;;;14.10;7.10;;;6.60;99.90;;;;;;4174874;28;20449;-82
2023/01/03 04:16:16;;;;;;;18.17;6.93;;;6.50;99.90;;;;;;4179215;28;20582;-83
2023/01/03 04:18:18;;;;;;;16.23;7.30;;;6.50;99.90;;;;;;4155398;28;20457;-83
2023/01/03 04:20:20;;;;;;;13.40;6.37;;;6.90;99.90;;;;;;4159461;28;20523;-83
2023/01/03 04:22:22;;;;;;;17.00;7.50;;;6.80;99.90;;;;;;4152188;28;20558;-82
2023/01/03 04:24:25;;;;;;;11.73;6.30;;;6.50;99.90;;;;;;4169148;28;20976;-82
2023/01/03 04:26:27;;;;;;;11.70;5.97;;;6.70;99.90;;;;;;4166779;28;20450;-82
2023/01/03 04:28:29;;;;;;;13.10;6.63;;;6.50;99.90;;;;;;4157998;28;20454;-82
2023/01/03 04:30:31;;;;;;;13.40;6.33;;;6.90;99.90;;;;;;4180147;28;20447;-83
2023/01/03 04:32:33;;;;;;;12.23;5.87;;;6.50;99.90;;;;;;4167320;28;20459;-82
2023/01/03 04:34:37;;;;;;;11.27;5.27;;;6.50;99.90;;;;;;4161699;28;20476;-83
2023/01/03 04:36:39;;;;;;;10.73;4.83;;;6.50;99.90;;;;;;4180970;28;20477;-82
2023/01/03 04:38:41;;;;;;;9.53;5.03;;;6.50;99.90;;;;;;4161608;28;20959;-82
2023/01/03 04:40:44;;;;;;;12.93;5.60;;;6.50;99.90;;;;;;4165037;28;20909;-83
2023/01/03 04:45:06;;;;;;;9.97;5.23;;;6.40;99.90;;;;;;4164328;28;20448;-82
2023/01/03 04:47:08;;;;;;;9.43;5.37;;;6.40;99.90;;;;;;4180966;28;20464;-83
2023/01/03 04:49:11;;;;;;;10.13;4.60;;;6.50;99.90;;;;;;4174885;28;20532;-83
2023/01/03 04:51:13;;;;;;;10.03;5.70;;;6.50;99.90;;;;;;4172744;28;20448;-82
2023/01/03 04:53:16;;;;;;;10.93;5.57;;;6.60;99.90;;;;;;4160870;28;20519;-83
2023/01/03 04:55:18;;;;;;;12.63;6.53;;;6.40;99.90;;;;;;4152777;28;20975;-82
2023/01/03 04:57:21;;;;;;;13.07;6.73;;;6.50;99.90;;;;;;4172217;28;20989;-82
2023/01/03 04:59:23;;;;;;;17.70;8.63;;;6.50;99.90;;;;;;4160154;28;20527;-83
2023/01/03 05:01:25;;;;;;;15.93;8.50;;;6.50;99.90;;;;;;4169381;28;21226;-82
2023/01/03 05:03:27;;;;;;;20.97;10.03;;;6.50;99.90;;;;;;4158940;28;20471;-82
2023/01/03 05:05:29;;;;;;;18.57;8.23;;;6.50;99.90;;;;;;4155036;28;20461;-82
2023/01/03 05:07:31;;;;;;;16.20;7.70;;;6.50;99.90;;;;;;4171821;28;20498;-82
2023/01/03 05:09:33;;;;;;;21.07;11.00;;;6.50;99.90;;;;;;4171906;28;20480;-83
2023/01/03 05:11:35;;;;;;;20.33;10.07;;;6.50;99.90;;;;;;4174330;28;20452;-82
2023/01/03 05:13:39;;;;;;;22.63;11.17;;;6.60;99.90;;;;;;4173594;28;20824;-82
2023/01/03 05:15:41;;;;;;;24.87;12.03;;;6.50;99.90;;;;;;4173356;28;20953;-82
2023/01/03 05:17:43;;;;;;;22.50;11.10;;;6.50;99.90;;;;;;4154326;28;20485;-82
2023/01/03 05:26:40;;;;;;;22.27;10.30;;;6.60;99.90;;;;;;4155748;28;20524;-82
2023/01/03 05:28:47;;;;;;;18.07;9.67;;;6.60;99.90;;;;;;4157794;28;20485;-82
2023/01/03 05:30:49;;;;;;;19.00;9.30;;;6.60;99.90;;;;;;4156566;28;20475;-83
2023/01/03 05:32:51;;;;;;;16.93;8.47;;;6.60;99.90;;;;;;4157349;28;20461;-83
2023/01/03 05:34:53;;;;;;;20.63;10.27;;;6.60;99.90;;;;;;4174219;28;20454;-82
2023/01/03 05:36:58;;;;;;;16.80;8.13;;;6.60;99.90;;;;;;4155871;28;21631;-82
2023/01/03 05:39:00;;;;;;;17.57;8.60;;;6.60;99.90;;;;;;4170570;28;20478;-82
2023/01/03 05:41:02;;;;;;;16.33;8.07;;;6.50;99.90;;;;;;4167265;28;20473;-82
2023/01/03 05:43:03;;;;;;;15.53;7.67;;;6.50;99.90;;;;;;4163494;28;20481;-82
2023/01/03 05:45:08;;;;;;;14.90;7.03;;;6.50;99.90;;;;;;4170124;28;20464;-82
2023/01/03 05:47:10;;;;;;;13.70;6.70;;;6.60;99.90;;;;;;4177608;28;20452;-82
2023/01/03 05:49:13;;;;;;;11.40;5.87;;;6.60;99.90;;;;;;4153496;28;20587;-82
2023/01/03 05:51:15;;;;;;;12.30;6.43;;;6.60;99.90;;;;;;4178196;28;20539;-82
2023/01/03 05:53:17;;;;;;;11.60;5.57;;;6.60;99.90;;;;;;4178845;28;20942;-84
2023/01/03 05:55:19;;;;;;;13.53;6.03;;;6.60;99.90;;;;;;4156921;28;20547;-82
2023/01/03 05:57:21;;;;;;;10.53;5.37;;;6.60;99.90;;;;;;4175002;28;20549;-83
2023/01/03 05:59:23;;;;;;;11.50;5.60;;;6.50;99.90;;;;;;4153083;28;20481;-83
2023/01/03 06:01:27;;;;;;;17.57;5.90;;;6.60;99.90;;;;;;4153719;28;22095;-82
2023/01/03 06:03:29;;;;;;;11.20;5.53;;;6.60;99.90;;;;;;4166054;28;21105;-82
2023/01/03 06:05:31;;;;;;;13.97;7.00;;;6.60;99.90;;;;;;4155949;28;20503;-83
2023/01/03 06:07:35;;;;;;;15.17;6.87;;;6.60;99.90;;;;;;4180106;28;20870;-82
2023/01/03 06:09:37;;;;;;;16.23;6.90;;;6.60;99.90;;;;;;4173981;28;20571;-82
2023/01/03 06:11:39;;;;;;;15.73;7.27;;;6.60;99.90;;;;;;4160395;28;20496;-83
2023/01/03 06:13:42;;;;;;;13.70;6.87;;;6.60;99.90;;;;;;4157802;28;20550;-82
2023/01/03 06:17:53;;;;;;;14.10;6.37;;;6.60;99.90;;;;;;4175338;28;20453;-82
2023/01/03 06:18:06;;;;;;;9.37;5.53;;;6.70;99.90;;;;;;4161320;28;20464;-82
2023/01/03 06:20:09;;;;;;;11.10;5.67;;;6.50;99.90;;;;;;4154551;28;20508;-83
2023/01/03 06:22:11;;;;;;;12.63;5.50;;;6.60;99.90;;;;;;4181067;28;20455;-83
2023/01/03 06:24:13;;;;;;;9.23;5.60;;;6.60;99.90;;;;;;4157578;28;20468;-83
2023/01/03 06:26:15;;;;;;;11.77;5.77;;;6.60;99.90;;;;;;4173354;28;20452;-82
2023/01/03 06:28:17;;;;;;;10.03;6.07;;;6.60;99.90;;;;;;4174504;28;20447;-82
2023/01/03 06:30:19;;;;;;;9.50;5.00;;;6.60;99.90;;;;;;4157140;28;20493;-83
2023/01/03 06:32:21;;;;;;;8.90;5.10;;;6.60;99.90;;;;;;4173872;28;20497;-82
2023/01/03 06:34:24;;;;;;;13.60;5.40;;;6.60;99.90;;;;;;4161475;28;20469;-82
2023/01/03 06:36:26;;;;;;;13.03;5.83;;;6.60;99.90;;;;;;4162804;28;20466;-82
2023/01/03 06:38:30;;;;;;;11.80;6.07;;;6.60;99.90;;;;;;4168187;28;20515;-82
2023/01/03 06:40:32;;;;;;;12.60;5.77;;;6.50;99.90;;;;;;4153322;28;20504;-83
2023/01/03 06:42:39;;;;;;;8.90;5.30;;;6.50;99.90;;;;;;4169220;28;20507;-83
2023/01/03 06:44:41;;;;;;;12.23;5.30;;;6.50;99.90;;;;;;4161635;28;20497;-83
2023/01/03 06:53:44;;;;;;;13.43;6.40;;;6.40;99.90;;;;;;4161508;28;20462;-83
2023/01/03 06:55:46;;;;;;;11.90;6.03;;;6.40;99.90;;;;;;4179743;28;20460;-82
2023/01/03 06:57:48;;;;;;;10.40;5.93;;;6.40;99.90;;;;;;4180673;28;20492;-82
2023/01/03 06:59:50;;;;;;;12.00;6.37;;;6.40;99.90;;;;;;4180990;28;20477;-82
2023/01/03 07:01:53;;;;;;;12.37;6.50;;;6.40;99.90;;;;;;4164018;28;20488;-82
2023/01/03 07:03:55;;;;;;;11.03;6.33;;;6.30;99.90;;;;;;4171171;28;20453;-83
2023/01/03 07:05:57;;;;;;;11.17;6.43;;;6.40;99.90;;;;;;4186201;28;20432;-83
2023/01/03 07:08:00;;;;;;;12.67;6.43;;;6.40;99.90;;;;;;4186471;28;20451;-82
2023/01/03 07:10:02;;;;;;;12.13;6.73;;;6.30;99.90;;;;;;4164816;28;20933;-83
2023/01/03 07:14:20;;;;;;;10.37;5.70;;;6.30;99.90;;;;;;4183695;28;20492;-82
2023/01/03 07:16:22;;;;;;;13.67;6.50;;;6.20;99.90;;;;;;4161428;28;20488;-82
2023/01/03 07:18:25;;;;;;;16.87;6.30;;;6.20;99.90;;;;;;4168891;28;20469;-82
2023/01/03 07:20:27;;;;;;;11.50;6.07;;;6.10;99.90;;;;;;4175813;28;21154;-82
2023/01/03 07:22:29;;;;;;;13.77;6.60;;;6.10;99.90;;;;;;4162271;28;20907;-82
2023/01/03 07:24:32;;;;;;;9.87;6.13;;;6.10;99.90;;;;;;4178453;28;20470;-83
2023/01/03 07:26:35;;;;;;;12.20;5.90;;;6.10;99.90;;;;;;4183170;28;20459;-83
2023/01/03 07:28:37;;;;;;;14.77;6.80;;;6.00;99.90;;;;;;4176472;28;20449;-83
2023/01/03 07:30:40;;;;;;;12.10;6.10;;;6.70;99.90;;;;;;4164629;28;20463;-83
2023/01/03 07:32:42;;;;;;;11.70;6.37;;;6.40;99.90;;;;;;4178837;28;21010;-83
2023/01/03 07:34:44;;;;;;;11.17;6.17;;;6.00;99.90;;;;;;4178686;28;20463;-83
2023/01/03 07:36:46;;;;;;;11.47;6.60;;;6.00;99.90;;;;;;4153703;28;20482;-83
2023/01/03 07:38:48;;;;;;;13.23;7.00;;;6.30;99.90;;;;;;4169428;28;20888;-83
2023/01/03 07:40:52;;;;;;;12.37;6.70;;;5.90;99.90;;;;;;4163108;28;20497;-83
2023/01/03 07:45:13;;;;;;;16.70;8.07;;;5.90;99.90;;;;;;4155846;28;20466;-83
2023/01/03 07:47:18;;;;;;;14.83;6.70;;;5.80;99.90;;;;;;4161627;28;20444;-84
2023/01/03 07:49:19;;;;;;;17.03;7.37;;;5.80;99.90;;;;;;4158378;28;20540;-84
2023/01/03 07:51:23;;;;;;;15.63;7.27;;;5.80;99.90;;;;;;4160949;28;20459;-85
2023/01/03 07:53:25;;;;;;;13.23;6.90;;;5.70;99.90;;;;;;4172237;28;20561;-85
2023/01/03 07:55:28;;;;;;;13.37;6.60;;;5.80;99.90;;;;;;4155826;28;20511;-85
2023/01/03 07:57:31;;;;;;;11.37;6.20;;;5.70;99.90;;;;;;4153524;28;21004;-85
2023/01/03 07:59:34;;;;;;;11.57;6.17;;;5.80;99.90;;;;;;4162121;28;20471;-85
2023/01/03 08:01:36;;;;;;;12.37;6.00;;;5.60;99.90;;;;;;4167604;28;20961;-82
2023/01/03 08:03:39;;;;;;;10.83;5.33;;;5.80;99.90;;;;;;4163799;28;20455;-81
2023/01/03 08:05:41;;;;;;;12.73;5.83;;;5.50;99.90;;;;;;4173651;28;20489;-81
2023/01/03 08:07:43;;;;;;;14.13;6.67;;;5.50;99.90;;;;;;4170674;28;21190;-80
2023/01/03 08:14:25;;;;;;;16.20;7.30;;;5.50;99.90;;;;;;4175824;28;20440;-80
2023/01/03 08:16:27;;;;;;;16.27;7.77;;;5.50;99.90;;;;;;4174927;28;20454;-80
2023/01/03 08:18:29;;;;;;;16.77;8.53;;;5.50;99.90;;;;;;4173616;28;20554;-81
2023/01/03 08:20:31;;;;;;;21.93;9.33;;;5.50;99.90;;;;;;4157254;28;20529;-80
2023/01/03 08:22:33;;;;;;;15.20;7.87;;;5.50;99.90;;;;;;4176976;28;21038;-80
2023/01/03 08:24:35;;;;;;;12.33;6.40;;;5.50;99.90;;;;;;4157671;28;20472;-80
2023/01/03 08:26:37;;;;;;;17.37;7.30;;;5.50;99.90;;;;;;4172747;28;20461;-80
2023/01/03 08:28:40;;;;;;;13.50;6.57;;;5.40;99.90;;;;;;4173094;28;20516;-80
2023/01/03 08:30:47;;;;;;;12.70;6.90;;;5.40;99.90;;;;;;4175702;28;20453;-81
2023/01/03 08:32:49;;;;;;;13.93;6.17;;;5.50;99.90;;;;;;4168527;28;20483;-86
2023/01/03 08:34:53;;;;;;;13.50;7.20;;;5.50;99.90;;;;;;4179959;28;20455;-85
2023/01/03 08:36:59;;;;;;;14.90;6.67;;;5.50;99.90;;;;;;4171002;28;20483;-86
2023/01/03 08:39:06;;;;;;;15.60;6.83;;;5.60;99.90;;;;;;4166515;28;20498;-83
2023/01/03 08:41:11;;;;;;;18.10;7.00;;;5.70;99.90;;;;;;4172258;28;20806;-83
2023/01/03 08:43:15;;;;;;;15.63;6.23;;;5.70;99.90;;;;;;4159283;28;20464;-81
2023/01/03 08:45:18;;;;;;;13.53;6.37;;;6.00;99.90;;;;;;4159286;28;20907;-81
2023/01/03 08:47:21;;;;;;;11.30;6.13;;;5.80;99.90;;;;;;4173501;28;20452;-81
2023/01/03 08:49:25;;;;;;;12.77;6.63;;;5.70;99.90;;;;;;4156647;28;20489;-81
2023/01/03 08:51:28;;;;;;;14.77;6.30;;;5.70;99.90;;;;;;4156618;28;20457;-81
2023/01/03 08:53:30;;;;;;;15.43;6.40;;;5.70;99.90;;;;;;4161210;28;20517;-81
2023/01/03 08:55:33;;;;;;;14.20;6.47;;;5.60;99.90;;;;;;4159523;28;20448;-81
2023/01/03 08:57:34;;;;;;;9.80;5.30;;;5.60;99.90;;;;;;4167434;28;20476;-81
2023/01/03 08:59:36;;;;;;;11.83;6.03;;;5.60;99.90;;;;;;4167972;28;20519;-81
2023/01/03 09:01:39;;;;;;;13.80;6.23;;;5.60;99.90;;;;;;4178577;28;20491;-81
2023/01/03 09:03:42;;;;;;;14.17;6.27;;;5.60;99.90;;;;;;4177352;28;20538;-81
2023/01/03 09:05:44;;;;;;;15.33;6.50;;;5.70;99.90;;;;;;4182034;28;20487;-81
2023/01/03 09:07:46;;;;;;;13.13;6.07;;;5.70;99.90;;;;;;4178836;28;20489;-81
2023/01/03 09:09:48;;;;;;;14.70;6.07;;;5.70;99.90;;;;;;4186888;28;20472;-81
2023/01/03 09:11:50;;;;;;;14.40;6.00;;;5.70;99.90;;;;;;4160945;28;20473;-81
2023/01/03 09:13:51;;;;;;;10.70;5.67;;;5.80;99.90;;;;;;4180267;28;20490;-80
2023/01/03 09:16:01;;;;;;;13.70;5.70;;;5.80;99.90;;;;;;4175060;28;20499;-81
2023/01/03 09:18:02;;;;;;;13.40;6.10;;;5.80;99.90;;;;;;4176755;28;20491;-81
2023/01/03 09:20:07;;;;;;;9.20;5.60;;;5.90;99.90;;;;;;4180276;28;20498;-81
2023/01/03 09:22:09;;;;;;;10.63;5.77;;;5.90;99.90;;;;;;4175484;28;20452;-81
2023/01/03 09:24:13;;;;;;;10.57;5.57;;;5.90;99.90;;;;;;4176787;28;20452;-81
2023/01/03 09:26:15;;;;;;;9.87;5.20;;;5.90;99.90;;;;;;4158401;28;20444;-81
2023/01/03 09:28:17;;;;;;;11.57;5.33;;;6.00;99.90;;;;;;4156114;28;20520;-81
2023/01/03 09:30:19;;;;;;;9.43;4.80;;;5.90;99.90;;;;;;4173342;28;20473;-81
2023/01/03 09:32:21;;;;;;;10.53;5.10;;;5.90;99.90;;;;;;4174988;28;20479;-81
2023/01/03 09:34:23;;;;;;;11.47;4.93;;;5.90;99.90;;;;;;4160029;28;20464;-82
2023/01/03 09:36:27;;;;;;;10.10;5.03;;;5.90;99.90;;;;;;4157593;28;20892;-82
2023/01/03 09:38:29;;;;;;;8.13;4.73;;;6.10;99.90;;;;;;4160157;28;20512;-83
2023/01/03 09:40:36;;;;;;;9.67;4.27;;;6.00;99.90;;;;;;4164856;28;20554;-83
2023/01/03 09:44:59;;;;;;;10.57;5.07;;;6.00;99.90;;;;;;4174739;28;20801;-82
2023/01/03 09:47:02;;;;;;;10.40;5.00;;;6.00;99.90;;;;;;4175349;28;20464;-82
2023/01/03 09:49:06;;;;;;;7.03;4.10;;;6.10;99.90;;;;;;4175745;28;20481;-82
2023/01/03 10:05:55;;;;;;;6.07;3.27;;;6.30;99.90;;;;;;4180725;28;20474;-82
2023/01/03 10:08:21;;;;;;;8.23;3.10;;;6.40;99.90;;;;;;4176639;28;20465;-82
2023/01/03 10:10:32;;;;;;;7.57;3.00;;;6.40;99.90;;;;;;4175210;28;20476;-82
2023/01/03 10:12:44;;;;;;;9.93;3.13;;;6.50;99.90;;;;;;4175138;28;20511;-81
2023/01/03 10:15:03;;;;;;;7.10;2.97;;;6.60;99.90;;;;;;4157746;28;20560;-82
2023/01/03 10:17:18;;;;;;;6.70;3.30;;;6.60;99.90;;;;;;4176426;28;20456;-82
2023/01/03 10:19:54;;;;;;;6.43;3.20;;;7.10;99.90;;;;;;4174761;28;20467;-82
2023/01/03 10:22:04;;;;;;;6.40;2.77;;;6.70;99.90;;;;;;4161397;28;20460;-82
2023/01/03 10:24:18;;;;;;;9.70;2.97;;;6.70;99.90;;;;;;4177047;28;20452;-82
2023/01/03 10:26:24;;;;;;;5.07;2.70;;;6.80;99.90;;;;;;4173789;28;20844;-82
2023/01/03 10:28:30;;;;;;;4.77;2.70;;;6.80;99.90;;;;;;4173126;28;20453;-82
2023/01/03 10:30:44;;;;;;;5.17;2.63;;;6.80;99.90;;;;;;4155496;28;20529;-82
2023/01/03 10:33:14;;;;;;;5.00;2.67;;;6.80;99.90;;;;;;4174251;28;20926;-81
2023/01/03 10:35:21;;;;;;;9.37;2.90;;;6.90;99.90;;;;;;4161144;28;20493;-81
2023/01/03 10:37:24;;;;;;;6.83;2.80;;;7.00;99.90;;;;;;4157815;28;20489;-81
2023/01/03 10:39:31;;;;;;;5.13;2.50;;;7.00;99.90;;;;;;4152637;28;20521;-81
2023/01/03 10:41:42;;;;;;;4.20;2.77;;;7.00;99.90;;;;;;4173101;28;20489;-81
2023/01/03 10:43:45;;;;;;;4.63;2.67;;;7.00;99.90;;;;;;4170111;28;20457;-81
2023/01/03 10:45:52;;;;;;;4.27;2.60;;;7.10;99.90;;;;;;4175029;28;20461;-81
2023/01/03 10:47:59;;;;;;;5.43;2.57;;;7.60;99.90;;;;;;4172804;28;20448;-81
2023/01/03 10:50:02;;;;;;;5.97;2.90;;;7.10;99.90;;;;;;4172045;28;20483;-81
2023/01/03 10:52:12;;;;;;;4.67;2.50;;;7.20;99.90;;;;;;4169752;28;20942;-81
2023/01/03 10:54:26;;;;;;;4.87;2.87;;;7.20;99.90;;;;;;4175165;28;20445;-81
2023/01/03 10:56:30;;;;;;;8.00;3.00;;;7.40;99.90;;;;;;4168945;28;20464;-81
2023/01/03 10:58:33;;;;;;;4.20;2.47;;;7.30;99.90;;;;;;4173420;28;20511;-81
2023/01/03 11:00:36;;;;;;;6.73;3.17;;;7.30;99.90;;;;;;4169424;28;20844;-81
2023/01/03 11:02:45;;;;;;;5.93;2.73;;;7.40;99.90;;;;;;4163725;28;20461;-80
2023/01/03 11:04:47;;;;;;;5.77;2.67;;;7.40;99.90;;;;;;4173399;28;20813;-80
2023/01/03 11:07:12;;;;;;;6.97;2.70;;;7.50;99.90;;;;;;4173983;28;20505;-81
2023/01/03 11:09:14;;;;;;;6.20;2.80;;;7.60;99.90;;;;;;4166418;28;20477;-81
2023/01/03 11:11:29;;;;;;;5.10;2.40;;;7.60;99.90;;;;;;4175458;28;20833;-80
2023/01/03 11:13:36;;;;;;;4.07;2.57;;;7.60;99.90;;;;;;4157650;28;20458;-83
2023/01/03 11:15:38;;;;;;;4.73;2.40;;;7.70;99.90;;;;;;4178062;28;20500;-81
2023/01/03 11:17:53;;;;;;;3.67;2.23;;;7.70;99.90;;;;;;4164609;28;21054;-81
2023/01/03 11:19:56;;;;;;;4.70;2.37;;;7.90;99.90;;;;;;4175911;28;20535;-81
2023/01/03 11:22:05;;;;;;;4.47;2.50;;;7.80;99.90;;;;;;4158287;28;20570;-82
2023/01/03 11:24:20;;;;;;;4.27;2.17;;;7.90;99.90;;;;;;4180194;28;20206;-82
2023/01/03 11:26:36;;;;;;;5.93;2.20;;;7.90;99.90;;;;;;4157980;28;20481;-82
2023/01/03 11:28:57;;;;;;;3.53;2.00;;;8.00;99.90;;;;;;4173284;28;20219;-81
2023/01/03 11:31:04;;;;;;;8.23;2.47;;;8.10;99.90;;;;;;4160487;28;20613;-82
2023/01/03 11:33:28;;;;;;;5.97;2.37;;;8.20;99.90;;;;;;4177949;28;20475;-82
2023/01/03 11:35:45;;;;;;;6.83;2.20;;;8.30;99.90;;;;;;4173173;28;20449;-82
2023/01/03 11:37:56;;;;;;;5.17;2.07;;;8.30;99.90;;;;;;4155530;28;20561;-81
2023/01/03 11:40:07;;;;;;;6.03;2.40;;;8.40;99.90;;;;;;4172207;28;20277;-81
2023/01/03 11:42:28;;;;;;;6.77;2.43;;;8.50;99.90;;;;;;4172327;28;20292;-83
2023/01/03 11:44:57;;;;;;;5.00;1.87;;;8.50;99.90;;;;;;4157960;28;20218;-82
2023/01/03 11:47:12;;;;;;;3.20;2.03;;;8.60;99.90;;;;;;4178654;28;20207;-79
2023/01/03 11:49:32;;;;;;;4.23;2.43;;;8.80;99.90;;;;;;4170226;28;20219;-81
2023/01/03 11:51:41;;;;;;;4.40;2.17;;;8.80;99.90;;;;;;4175169;28;20254;-84
2023/01/03 11:53:56;;;;;;;4.30;2.27;;;8.90;99.90;;;;;;4154911;28;20199;-84
2023/01/03 11:56:12;;;;;;;5.80;2.20;;;9.00;99.90;;;;;;4160601;28;20232;-83
2023/01/03 11:58:33;;;;;;;4.00;1.97;;;9.00;99.90;;;;;;4162215;28;20805;-85
2023/01/03 12:00:46;;;;;;;4.90;1.93;;;9.00;99.90;;;;;;4174960;28;20200;-84
2023/01/03 12:03:11;;;;;;;5.53;1.90;;;9.10;99.90;;;;;;4155599;28;20783;-82
2023/01/03 12:05:32;;;;;;;4.07;1.90;;;9.40;99.90;;;;;;4174934;28;20638;-82